M I D A S
Marine Information and Data Acquisition System
Tripno 1574 of the Zeeleeuw from 2008-09-25 04:02:56 to 2008-09-25 14:31:22
Back to CruiseResearch ActivitiesStationsMapUnderway DataData graphs

EquipmentUnitsComment
TimeDGPSUTC
LatitudeDGPSDM.mWGS84
LongitudeDGPSDM.mWGS84
HeadingGyrodeg 
SOGDGPSknotsSpeed over ground
COGDGPSdegCourse over ground
DepthEcho soundermeters200 kHz
Missing or incorrect values are displayed as -999
Navigation data collected by the RV Zeeleeuw from 2008-09-25 04:02:56 to 2008-09-25 14:31:22
                                                                                    Next 1000 lines
Time Latitude Longitude Heading SOG COG Depth
2008-09-25 04:29:10 51°14.692 2°54.314 301.1 11.5 297 -999
2008-09-25 04:29:20 51°14.696 2°54.3 301.1 11.5 297 -999
2008-09-25 04:29:30 51°14.709 2°54.259 301.1 11.5 297 -999
2008-09-25 04:29:40 51°14.721 2°54.212 301.1 11.5 297 -999
2008-09-25 04:29:50 51°14.733 2°54.165 301.1 11.5 297 -999
2008-09-25 04:30:00 51°14.744 2°54.117 295.1 11.5 291 -999
2008-09-25 04:30:10 51°14.756 2°54.069 295.1 11.5 291 -999
2008-09-25 04:30:20 51°14.767 2°54.021 295.1 11.5 291 -999
2008-09-25 04:30:30 51°14.778 2°53.973 295.1 11.5 291 -999
2008-09-25 04:30:40 51°14.788 2°53.924 295.1 11.5 291 -999
2008-09-25 04:30:50 51°14.796 2°53.875 295.1 11.5 291 -999
2008-09-25 04:31:00 51°14.802 2°53.824 285.8 11.59 281 -999
2008-09-25 04:31:10 51°14.806 2°53.772 285.8 11.59 281 -999
2008-09-25 04:31:20 51°14.809 2°53.726 285.8 11.59 281 -999
2008-09-25 04:31:30 51°14.811 2°53.669 285.8 11.59 281 -999
2008-09-25 04:31:40 51°14.813 2°53.616 285.8 11.59 281 -999
2008-09-25 04:31:50 51°14.814 2°53.563 285.8 11.59 281 -999
2008-09-25 04:32:00 51°14.816 2°53.511 275.5 11.9 273 -999
2008-09-25 04:32:10 51°14.817 2°53.458 275.5 11.9 273 -999
2008-09-25 04:32:20 51°14.819 2°53.405 275.5 11.9 273 -999
2008-09-25 04:32:30 51°14.819 2°53.352 275.5 11.9 273 -999
2008-09-25 04:32:40 51°14.82 2°53.3 275.5 11.9 273 -999
2008-09-25 04:32:50 51°14.82 2°53.247 275.5 11.9 273 -999
2008-09-25 04:33:00 51°14.821 2°53.194 273.8 11.9 271 -999
2008-09-25 04:33:10 51°14.822 2°53.142 273.8 11.9 271 -999
2008-09-25 04:33:20 51°14.823 2°53.089 273.8 11.9 271 -999
2008-09-25 04:33:30 51°14.824 2°53.036 273.8 11.9 271 -999
2008-09-25 04:33:40 51°14.826 2°52.984 273.8 11.9 271 -999
2008-09-25 04:33:50 51°14.827 2°52.931 273.8 11.9 271 -999
2008-09-25 04:34:00 51°14.828 2°52.878 276 12 272 -999
2008-09-25 04:34:10 51°14.829 2°52.826 276 12 272 -999
2008-09-25 04:34:20 51°14.83 2°52.773 276 12 272 -999
2008-09-25 04:34:30 51°14.831 2°52.72 276 12 272 -999
2008-09-25 04:34:40 51°14.832 2°52.667 276 12 272 -999
2008-09-25 04:34:50 51°14.833 2°52.614 276 12 272 -999
2008-09-25 04:35:00 51°14.834 2°52.562 275.5 11.9 272 -999
2008-09-25 04:35:10 51°14.835 2°52.509 275.5 11.9 272 -999
2008-09-25 04:35:20 51°14.836 2°52.456 275.5 11.9 272 -999
2008-09-25 04:35:30 51°14.838 2°52.403 275.5 11.9 272 -999
2008-09-25 04:35:40 51°14.839 2°52.351 275.5 11.9 272 -999
2008-09-25 04:35:50 51°14.841 2°52.299 275.5 11.9 272 -999
2008-09-25 04:36:00 51°14.843 2°52.246 276 11.9 272 -999
2008-09-25 04:36:10 51°14.844 2°52.194 276 11.9 272 -999
2008-09-25 04:36:20 51°14.846 2°52.141 276 11.9 272 -999
2008-09-25 04:36:30 51°14.849 2°52.089 276 11.9 272 -999
2008-09-25 04:36:40 51°14.852 2°52.041 276 11.9 272 -999
2008-09-25 04:36:50 51°14.855 2°51.983 276 11.9 272 -999
2008-09-25 04:37:00 51°14.856 2°51.93 277.5 12.09 274 -999
2008-09-25 04:37:10 51°14.857 2°51.877 277.5 12.09 274 -999
2008-09-25 04:37:20 51°14.858 2°51.829 277.5 12.09 274 -999
2008-09-25 04:37:30 51°14.86 2°51.77 277.5 12.09 274 -999
2008-09-25 04:37:40 51°14.862 2°51.716 277.5 12.09 274 -999
2008-09-25 04:37:50 51°14.864 2°51.663 277.5 12.09 274 -999
2008-09-25 04:38:00 51°14.865 2°51.609 277.1 12.09 272 -999
2008-09-25 04:38:10 51°14.867 2°51.556 277.1 12.09 272 -999
2008-09-25 04:38:20 51°14.868 2°51.502 277.1 12.09 272 -999
2008-09-25 04:38:30 51°14.87 2°51.449 277.1 12.09 272 -999
2008-09-25 04:38:40 51°14.872 2°51.395 277.1 12.09 272 -999
2008-09-25 04:38:50 51°14.873 2°51.341 277.1 12.09 272 -999
2008-09-25 04:39:00 51°14.875 2°51.288 276.5 12.19 272 -999
2008-09-25 04:39:10 51°14.876 2°51.234 276.5 12.19 272 -999
2008-09-25 04:39:20 51°14.877 2°51.18 276.5 12.19 272 -999
2008-09-25 04:39:30 51°14.879 2°51.126 276.5 12.19 272 -999
2008-09-25 04:39:40 51°14.882 2°51.073 276.5 12.19 272 -999
2008-09-25 04:39:50 51°14.885 2°51.02 276.5 12.19 272 -999
2008-09-25 04:40:00 51°14.888 2°50.967 281.1 12.09 276 -999
2008-09-25 04:40:10 51°14.891 2°50.913 281.1 12.09 276 -999
2008-09-25 04:40:20 51°14.894 2°50.866 281.1 12.09 276 -999
2008-09-25 04:40:30 51°14.898 2°50.807 281.1 12.09 276 -999
2008-09-25 04:40:40 51°14.901 2°50.754 281.1 12.09 276 -999
2008-09-25 04:40:50 51°14.904 2°50.701 281.1 12.09 276 -999
2008-09-25 04:41:00 51°14.908 2°50.648 281.3 12.19 277 -999
2008-09-25 04:41:10 51°14.912 2°50.594 281.3 12.19 277 -999
2008-09-25 04:41:20 51°14.916 2°50.541 281.3 12.19 277 -999
2008-09-25 04:41:30 51°14.919 2°50.493 281.3 12.19 277 -999
2008-09-25 04:41:40 51°14.923 2°50.433 281.3 12.19 277 -999
2008-09-25 04:41:50 51°14.926 2°50.379 281.3 12.19 277 -999
2008-09-25 04:42:00 51°14.929 2°50.331 281.1 12.3 275 -999
2008-09-25 04:42:10 51°14.931 2°50.272 281.1 12.3 275 -999
2008-09-25 04:42:20 51°14.933 2°50.217 281.1 12.3 275 -999
2008-09-25 04:42:30 51°14.935 2°50.163 281.1 12.3 275 -999
2008-09-25 04:42:40 51°14.939 2°50.11 281.1 12.3 275 -999
2008-09-25 04:42:50 51°14.945 2°50.057 281.1 12.3 275 -999
2008-09-25 04:43:00 51°14.954 2°50.005 289.1 12 285 -999
2008-09-25 04:43:10 51°14.964 2°49.955 289.1 12 285 -999
2008-09-25 04:43:20 51°14.975 2°49.905 289.1 12 285 -999
2008-09-25 04:43:30 51°14.986 2°49.855 289.1 12 285 -999
2008-09-25 04:43:40 51°14.997 2°49.805 289.1 12 285 -999
2008-09-25 04:43:50 51°15.009 2°49.756 289.1 12 285 -999
2008-09-25 04:44:00 51°15.02 2°49.712 297.3 11.9 291 -999
2008-09-25 04:44:10 51°15.031 2°49.662 297.3 11.9 291 -999
2008-09-25 04:44:20 51°15.044 2°49.607 297.3 11.9 291 -999
2008-09-25 04:44:30 51°15.055 2°49.557 297.3 11.9 291 -999
2008-09-25 04:44:40 51°15.066 2°49.513 297.3 11.9 291 -999
2008-09-25 04:44:50 51°15.078 2°49.459 297.3 11.9 291 -999
2008-09-25 04:45:00 51°15.089 2°49.409 296.1 11.9 291 -999
2008-09-25 04:45:10 51°15.1 2°49.36 296.1 11.9 291 -999
2008-09-25 04:45:20 51°15.111 2°49.316 296.1 11.9 291 -999
2008-09-25 04:45:30 51°15.122 2°49.266 296.1 11.9 291 -999
2008-09-25 04:45:40 51°15.134 2°49.212 296.1 11.9 291 -999
2008-09-25 04:45:50 51°15.146 2°49.163 296.1 11.9 291 -999
2008-09-25 04:46:00 51°15.158 2°49.113 297.1 11.8 291 -999
2008-09-25 04:46:10 51°15.168 2°49.07 297.1 11.8 291 -999
2008-09-25 04:46:20 51°15.18 2°49.021 297.1 11.8 291 -999
2008-09-25 04:46:30 51°15.193 2°48.968 297.1 11.8 291 -999
2008-09-25 04:46:40 51°15.206 2°48.92 297.1 11.8 291 -999
2008-09-25 04:46:50 51°15.217 2°48.877 297.1 11.8 291 -999
2008-09-25 04:47:00 51°15.23 2°48.823 298 11.8 292 -999
2008-09-25 04:47:10 51°15.242 2°48.775 298 11.8 292 -999
2008-09-25 04:47:20 51°15.254 2°48.727 298 11.8 292 -999
2008-09-25 04:47:30 51°15.265 2°48.683 298 11.8 292 -999
2008-09-25 04:47:40 51°15.279 2°48.629 298 11.8 292 -999
2008-09-25 04:47:50 51°15.29 2°48.58 298 11.8 292 -999
2008-09-25 04:48:00 51°15.3 2°48.537 295.3 11.59 289 -999
2008-09-25 04:48:10 51°15.312 2°48.484 295.3 11.59 289 -999
2008-09-25 04:48:20 51°15.322 2°48.441 295.3 11.59 289 -999
2008-09-25 04:48:30 51°15.335 2°48.389 295.3 11.59 289 -999
2008-09-25 04:48:40 51°15.348 2°48.342 295.3 11.59 289 -999
2008-09-25 04:48:50 51°15.361 2°48.296 295.3 11.59 289 -999
2008-09-25 04:49:00 51°15.372 2°48.253 299.8 11.59 293 -999
2008-09-25 04:49:10 51°15.385 2°48.206 299.8 11.59 293 -999
2008-09-25 04:49:20 51°15.399 2°48.154 299.8 11.59 293 -999
2008-09-25 04:49:30 51°15.411 2°48.107 299.8 11.59 293 -999
2008-09-25 04:49:40 51°15.423 2°48.065 299.8 11.59 293 -999
2008-09-25 04:49:50 51°15.437 2°48.014 299.8 11.59 293 -999
2008-09-25 04:50:00 51°15.449 2°47.967 300.3 11.5 293 -999
2008-09-25 04:50:10 51°15.461 2°47.925 300.3 11.5 293 -999
2008-09-25 04:50:20 51°15.474 2°47.878 300.3 11.5 293 -999
2008-09-25 04:50:30 51°15.489 2°47.827 300.3 11.5 293 -999
2008-09-25 04:50:40 51°15.5 2°47.784 300.3 11.5 293 -999
2008-09-25 04:50:50 51°15.513 2°47.736 300.3 11.5 293 -999
2008-09-25 04:51:00 51°15.525 2°47.688 298.5 11.8 292 -999
2008-09-25 04:51:10 51°15.539 2°47.636 298.5 11.8 292 -999
2008-09-25 04:51:20 51°15.554 2°47.59 298.5 11.8 292 -999
2008-09-25 04:51:30 51°15.568 2°47.544 298.5 11.8 292 -999
2008-09-25 04:51:40 51°15.581 2°47.501 298.5 11.8 292 -999
2008-09-25 04:51:50 51°15.597 2°47.451 298.5 11.8 292 -999
2008-09-25 04:52:00 51°15.611 2°47.41 303.1 11.8 297 -999
2008-09-25 04:52:10 51°15.626 2°47.364 303.1 11.8 297 -999
2008-09-25 04:52:20 51°15.64 2°47.318 303.1 11.8 297 -999
2008-09-25 04:52:30 51°15.657 2°47.267 303.1 11.8 297 -999
2008-09-25 04:52:40 51°15.672 2°47.221 303.1 11.8 297 -999
2008-09-25 04:52:50 51°15.686 2°47.179 303.1 11.8 297 -999
2008-09-25 04:53:00 51°15.7 2°47.132 302.6 11.8 296 -999
2008-09-25 04:53:10 51°15.715 2°47.086 302.6 11.8 296 -999
2008-09-25 04:53:20 51°15.731 2°47.035 302.6 11.8 296 -999
2008-09-25 04:53:30 51°15.745 2°46.989 302.6 11.8 296 -999
2008-09-25 04:53:40 51°15.758 2°46.947 302.6 11.8 296 -999
2008-09-25 04:53:50 51°15.772 2°46.9 302.6 11.8 296 -999
2008-09-25 04:54:00 51°15.788 2°46.848 301.6 11.69 295 -999
2008-09-25 04:54:10 51°15.802 2°46.803 301.6 11.69 295 -999
2008-09-25 04:54:20 51°15.815 2°46.761 301.6 11.69 295 -999
2008-09-25 04:54:30 51°15.83 2°46.715 301.6 11.69 295 -999
2008-09-25 04:54:40 51°15.846 2°46.666 301.6 11.69 295 -999
2008-09-25 04:54:50 51°15.859 2°46.626 301.6 11.69 295 -999
2008-09-25 04:55:00 51°15.874 2°46.581 302.6 11.59 298 -999
2008-09-25 04:55:10 51°15.891 2°46.531 302.6 11.59 298 -999
2008-09-25 04:55:20 51°15.906 2°46.485 302.6 11.59 298 -999
2008-09-25 04:55:30 51°15.918 2°46.444 302.6 11.59 298 -999
2008-09-25 04:55:40 51°15.933 2°46.398 302.6 11.59 298 -999
2008-09-25 04:55:50 51°15.949 2°46.349 302.6 11.59 298 -999
2008-09-25 04:56:00 51°15.961 2°46.307 301.6 11.5 297 -999
2008-09-25 04:56:10 51°15.975 2°46.262 301.6 11.5 297 -999
2008-09-25 04:56:20 51°15.991 2°46.211 301.6 11.5 297 -999
2008-09-25 04:56:30 51°16.005 2°46.166 301.6 11.5 297 -999
2008-09-25 04:56:40 51°16.018 2°46.125 301.6 11.5 297 -999
2008-09-25 04:56:50 51°16.033 2°46.081 301.6 11.5 297 -999
2008-09-25 04:57:00 51°16.05 2°46.032 303.1 11.4 300 -999
2008-09-25 04:57:10 51°16.065 2°45.987 303.1 11.4 300 -999
2008-09-25 04:57:20 51°16.079 2°45.948 303.1 11.4 300 -999
2008-09-25 04:57:30 51°16.095 2°45.905 303.1 11.4 300 -999
2008-09-25 04:57:40 51°16.112 2°45.857 303.1 11.4 300 -999
2008-09-25 04:57:50 51°16.126 2°45.819 303.1 11.4 300 -999
2008-09-25 04:58:00 51°16.141 2°45.775 305.3 11.19 300 -999
2008-09-25 04:58:10 51°16.157 2°45.733 305.3 11.19 300 -999
2008-09-25 04:58:20 51°16.174 2°45.685 305.3 11.19 300 -999
2008-09-25 04:58:30 51°16.189 2°45.643 305.3 11.19 300 -999
2008-09-25 04:58:40 51°16.203 2°45.603 305.3 11.19 300 -999
2008-09-25 04:58:50 51°16.219 2°45.555 305.3 11.19 300 -999
2008-09-25 04:59:00 51°16.233 2°45.517 306.1 11.19 298 -999
2008-09-25 04:59:10 51°16.248 2°45.474 306.1 11.19 298 -999
2008-09-25 04:59:20 51°16.263 2°45.431 306.1 11.19 298 -999
2008-09-25 04:59:30 51°16.279 2°45.384 306.1 11.19 298 -999
2008-09-25 04:59:40 51°16.293 2°45.345 306.1 11.19 298 -999
2008-09-25 04:59:50 51°16.309 2°45.302 306.1 11.19 298 -999
2008-09-25 05:00:00 51°16.324 2°45.259 307.1 11.19 299 -999
2008-09-25 05:00:10 51°16.341 2°45.212 307.1 11.19 299 -999
2008-09-25 05:00:20 51°16.354 2°45.172 307.1 11.19 299 -999
2008-09-25 05:00:30 51°16.369 2°45.128 307.1 11.19 299 -999
2008-09-25 05:00:40 51°16.383 2°45.084 307.1 11.19 299 -999
2008-09-25 05:00:50 51°16.398 2°45.04 307.1 11.19 299 -999
2008-09-25 05:01:00 51°16.413 2°44.997 305 11.09 299 -999
2008-09-25 05:01:10 51°16.427 2°44.954 305 11.09 299 -999
2008-09-25 05:01:20 51°16.442 2°44.91 305 11.09 299 -999
2008-09-25 05:01:30 51°16.457 2°44.867 305 11.09 299 -999
2008-09-25 05:01:40 51°16.471 2°44.823 305 11.09 299 -999
2008-09-25 05:01:50 51°16.486 2°44.779 305 11.09 299 -999
2008-09-25 05:02:00 51°16.5 2°44.735 304.6 11.3 297 -999
2008-09-25 05:02:10 51°16.515 2°44.69 304.6 11.3 297 -999
2008-09-25 05:02:20 51°16.529 2°44.646 304.6 11.3 297 -999
2008-09-25 05:02:30 51°16.544 2°44.602 304.6 11.3 297 -999
2008-09-25 05:02:40 51°16.559 2°44.558 304.6 11.3 297 -999
2008-09-25 05:02:50 51°16.573 2°44.514 304.6 11.3 297 -999
2008-09-25 05:03:00 51°16.589 2°44.467 305.1 11.19 298 -999
2008-09-25 05:03:10 51°16.604 2°44.423 305.1 11.19 298 -999
2008-09-25 05:03:20 51°16.617 2°44.383 305.1 11.19 298 -999
2008-09-25 05:03:30 51°16.632 2°44.34 305.1 11.19 298 -999
2008-09-25 05:03:40 51°16.647 2°44.296 305.1 11.19 298 -999
2008-09-25 05:03:50 51°16.661 2°44.252 305.1 11.19 298 -999
2008-09-25 05:04:00 51°16.676 2°44.208 305 11.4 297 -999
2008-09-25 05:04:10 51°16.691 2°44.163 305 11.4 297 -999
2008-09-25 05:04:20 51°16.706 2°44.119 305 11.4 297 -999
2008-09-25 05:04:30 51°16.721 2°44.075 305 11.4 297 -999
2008-09-25 05:04:40 51°16.736 2°44.03 305 11.4 297 -999
2008-09-25 05:04:50 51°16.751 2°43.986 305 11.4 297 -999
2008-09-25 05:05:00 51°16.765 2°43.94 305.3 11.59 298 -999
2008-09-25 05:05:10 51°16.782 2°43.891 305.3 11.59 298 -999
2008-09-25 05:05:20 51°16.795 2°43.851 305.3 11.59 298 -999
2008-09-25 05:05:30 51°16.811 2°43.806 305.3 11.59 298 -999
2008-09-25 05:05:40 51°16.827 2°43.756 305.3 11.59 298 -999
2008-09-25 05:05:50 51°16.842 2°43.717 305.3 11.59 298 -999
2008-09-25 05:06:00 51°16.858 2°43.673 307.8 11.4 302 -999
2008-09-25 05:06:10 51°16.874 2°43.629 307.8 11.4 302 -999
2008-09-25 05:06:20 51°16.89 2°43.586 307.8 11.4 302 -999
2008-09-25 05:06:30 51°16.907 2°43.542 307.8 11.4 302 -999
2008-09-25 05:06:40 51°16.923 2°43.499 307.8 11.4 302 -999
2008-09-25 05:06:50 51°16.939 2°43.455 307.8 11.4 302 -999
2008-09-25 05:07:00 51°16.957 2°43.407 308.3 11.5 301 -999
2008-09-25 05:07:10 51°16.971 2°43.367 308.3 11.5 301 -999
2008-09-25 05:07:20 51°16.987 2°43.323 308.3 11.5 301 -999
2008-09-25 05:07:30 51°17.004 2°43.28 308.3 11.5 301 -999
2008-09-25 05:07:40 51°17.02 2°43.236 308.3 11.5 301 -999
2008-09-25 05:07:50 51°17.036 2°43.193 308.3 11.5 301 -999
2008-09-25 05:08:00 51°17.053 2°43.15 308.6 11.4 300 -999
2008-09-25 05:08:10 51°17.069 2°43.107 308.6 11.4 300 -999
2008-09-25 05:08:20 51°17.086 2°43.065 308.6 11.4 300 -999
2008-09-25 05:08:30 51°17.103 2°43.022 308.6 11.4 300 -999
2008-09-25 05:08:40 51°17.119 2°42.98 308.6 11.4 300 -999
2008-09-25 05:08:50 51°17.136 2°42.937 308.6 11.4 300 -999
2008-09-25 05:09:00 51°17.153 2°42.894 308.1 11.5 303 -999
2008-09-25 05:09:10 51°17.17 2°42.852 308.1 11.5 303 -999
2008-09-25 05:09:20 51°17.187 2°42.81 308.1 11.5 303 -999
2008-09-25 05:09:30 51°17.204 2°42.768 308.1 11.5 303 -999
2008-09-25 05:09:40 51°17.222 2°42.725 308.1 11.5 303 -999
2008-09-25 05:09:50 51°17.239 2°42.682 308.1 11.5 303 -999
2008-09-25 05:10:00 51°17.257 2°42.64 309.6 11.5 305 -999
2008-09-25 05:10:10 51°17.275 2°42.597 309.6 11.5 305 -999
2008-09-25 05:10:20 51°17.292 2°42.554 309.6 11.5 305 -999
2008-09-25 05:10:30 51°17.31 2°42.511 309.6 11.5 305 -999
2008-09-25 05:10:40 51°17.327 2°42.468 309.6 11.5 305 -999
2008-09-25 05:10:50 51°17.345 2°42.425 309.6 11.5 305 -999
2008-09-25 05:11:00 51°17.363 2°42.382 309.1 11.59 303 -999
2008-09-25 05:11:10 51°17.379 2°42.339 309.1 11.59 303 -999
2008-09-25 05:11:20 51°17.397 2°42.295 309.1 11.59 303 -999
2008-09-25 05:11:30 51°17.413 2°42.252 309.1 11.59 303 -999
2008-09-25 05:11:40 51°17.43 2°42.209 309.1 11.59 303 -999
2008-09-25 05:11:50 51°17.448 2°42.161 309.1 11.59 303 -999
2008-09-25 05:12:00 51°17.463 2°42.122 307.3 11.59 301 -999
2008-09-25 05:12:10 51°17.479 2°42.078 307.3 11.59 301 -999
2008-09-25 05:12:20 51°17.496 2°42.034 307.3 11.59 301 -999
2008-09-25 05:12:30 51°17.512 2°41.99 307.3 11.59 301 -999
2008-09-25 05:12:40 51°17.529 2°41.945 307.3 11.59 301 -999
2008-09-25 05:12:50 51°17.546 2°41.901 307.3 11.59 301 -999
2008-09-25 05:13:00 51°17.563 2°41.857 307.6 11.69 300 -999
2008-09-25 05:13:10 51°17.579 2°41.812 307.6 11.69 300 -999
2008-09-25 05:13:20 51°17.596 2°41.768 307.6 11.69 300 -999
2008-09-25 05:13:30 51°17.613 2°41.725 307.6 11.69 300 -999
2008-09-25 05:13:40 51°17.63 2°41.682 307.6 11.69 300 -999
2008-09-25 05:13:50 51°17.648 2°41.639 307.6 11.69 300 -999
2008-09-25 05:14:00 51°17.665 2°41.596 310.3 11.69 302 -999
2008-09-25 05:14:10 51°17.685 2°41.548 310.3 11.69 302 -999
2008-09-25 05:14:20 51°17.7 2°41.509 310.3 11.69 302 -999
2008-09-25 05:14:30 51°17.718 2°41.466 310.3 11.69 302 -999
2008-09-25 05:14:40 51°17.737 2°41.425 310.3 11.69 302 -999
2008-09-25 05:14:50 51°17.757 2°41.385 310.3 11.69 302 -999
2008-09-25 05:15:00 51°17.777 2°41.345 317.1 11.59 308 -999
2008-09-25 05:15:10 51°17.798 2°41.306 317.1 11.59 308 -999
2008-09-25 05:15:20 51°17.818 2°41.268 317.1 11.59 308 -999
2008-09-25 05:15:30 51°17.838 2°41.229 317.1 11.59 308 -999
2008-09-25 05:15:40 51°17.859 2°41.19 317.1 11.59 308 -999
2008-09-25 05:15:50 51°17.879 2°41.151 317.1 11.59 308 -999
2008-09-25 05:16:00 51°17.899 2°41.111 317.6 11.5 309 -999
2008-09-25 05:16:10 51°17.919 2°41.071 317.6 11.5 309 -999
2008-09-25 05:16:20 51°17.94 2°41.031 317.6 11.5 309 -999
2008-09-25 05:16:30 51°17.959 2°40.991 317.6 11.5 309 -999
2008-09-25 05:16:40 51°17.979 2°40.952 317.6 11.5 309 -999
2008-09-25 05:16:50 51°18.001 2°40.908 317.6 11.5 309 -999
2008-09-25 05:17:00 51°18.019 2°40.871 316.6 11.5 308 -999
2008-09-25 05:17:10 51°18.039 2°40.831 316.6 11.5 308 -999
2008-09-25 05:17:20 51°18.058 2°40.792 316.6 11.5 308 -999
2008-09-25 05:17:30 51°18.081 2°40.749 316.6 11.5 308 -999
2008-09-25 05:17:40 51°18.1 2°40.715 316.6 11.5 308 -999
2008-09-25 05:17:50 51°18.124 2°40.675 316.6 11.5 308 -999
2008-09-25 05:18:00 51°18.143 2°40.642 321.8 11.4 313 -999
2008-09-25 05:18:10 51°18.165 2°40.606 321.8 11.4 313 -999
2008-09-25 05:18:20 51°18.187 2°40.57 321.8 11.4 313 -999
2008-09-25 05:18:30 51°18.21 2°40.53 321.8 11.4 313 -999
2008-09-25 05:18:40 51°18.23 2°40.498 321.8 11.4 313 -999
2008-09-25 05:18:50 51°18.254 2°40.459 321.8 11.4 313 -999
2008-09-25 05:19:00 51°18.274 2°40.428 322.8 11.19 316 -999
2008-09-25 05:19:10 51°18.296 2°40.394 322.8 11.19 316 -999
2008-09-25 05:19:20 51°18.32 2°40.355 322.8 11.19 316 -999
2008-09-25 05:19:30 51°18.341 2°40.319 322.8 11.19 316 -999
2008-09-25 05:19:40 51°18.36 2°40.285 322.8 11.19 316 -999
2008-09-25 05:19:50 51°18.381 2°40.248 322.8 11.19 316 -999
2008-09-25 05:20:00 51°18.404 2°40.206 317.6 11.3 310 -999
2008-09-25 05:20:10 51°18.424 2°40.169 317.6 11.3 310 -999
2008-09-25 05:20:20 51°18.443 2°40.135 317.6 11.3 310 -999
2008-09-25 05:20:30 51°18.464 2°40.097 317.6 11.3 310 -999
2008-09-25 05:20:40 51°18.487 2°40.055 317.6 11.3 310 -999
2008-09-25 05:20:50 51°18.506 2°40.02 317.6 11.3 310 -999
2008-09-25 05:21:00 51°18.526 2°39.982 316.8 11.4 311 -999
2008-09-25 05:21:10 51°18.547 2°39.944 316.8 11.4 311 -999
2008-09-25 05:21:20 51°18.568 2°39.906 316.8 11.4 311 -999
2008-09-25 05:21:30 51°18.591 2°39.864 316.8 11.4 311 -999
2008-09-25 05:21:40 51°18.611 2°39.825 316.8 11.4 311 -999
2008-09-25 05:21:50 51°18.632 2°39.786 316.8 11.4 311 -999
2008-09-25 05:22:00 51°18.65 2°39.752 316.5 11.3 311 -999
2008-09-25 05:22:10 51°18.67 2°39.714 316.5 11.3 311 -999
2008-09-25 05:22:20 51°18.691 2°39.677 316.5 11.3 311 -999
2008-09-25 05:22:30 51°18.714 2°39.635 316.5 11.3 311 -999
2008-09-25 05:22:40 51°18.735 2°39.596 316.5 11.3 311 -999
2008-09-25 05:22:50 51°18.753 2°39.562 316.5 11.3 311 -999
2008-09-25 05:23:00 51°18.774 2°39.525 318.6 11.19 313 -999
2008-09-25 05:23:10 51°18.797 2°39.485 318.6 11.19 313 -999
2008-09-25 05:23:20 51°18.817 2°39.446 318.6 11.19 313 -999
2008-09-25 05:23:30 51°18.836 2°39.412 318.6 11.19 313 -999
2008-09-25 05:23:40 51°18.858 2°39.37 318.6 11.19 313 -999
2008-09-25 05:23:50 51°18.877 2°39.335 318.6 11.19 313 -999
2008-09-25 05:24:00 51°18.897 2°39.297 317.6 11.4 311 -999
2008-09-25 05:24:10 51°18.92 2°39.255 317.6 11.4 311 -999
2008-09-25 05:24:20 51°18.941 2°39.217 317.6 11.4 311 -999
2008-09-25 05:24:30 51°18.962 2°39.179 317.6 11.4 311 -999
2008-09-25 05:24:40 51°18.981 2°39.144 317.6 11.4 311 -999
2008-09-25 05:24:50 51°19.004 2°39.102 317.6 11.4 311 -999
2008-09-25 05:25:00 51°19.022 2°39.067 316.6 11.5 311 -999
2008-09-25 05:25:10 51°19.043 2°39.028 316.6 11.5 311 -999
2008-09-25 05:25:20 51°19.066 2°38.985 316.6 11.5 311 -999
2008-09-25 05:25:30 51°19.086 2°38.946 316.6 11.5 311 -999
2008-09-25 05:25:40 51°19.105 2°38.911 316.6 11.5 311 -999
2008-09-25 05:25:50 51°19.125 2°38.872 316.6 11.5 311 -999
2008-09-25 05:26:00 51°19.148 2°38.83 316.5 11.4 311 -999
2008-09-25 05:26:10 51°19.169 2°38.791 316.5 11.4 311 -999
2008-09-25 05:26:20 51°19.188 2°38.757 316.5 11.4 311 -999
2008-09-25 05:26:30 51°19.208 2°38.718 316.5 11.4 311 -999
2008-09-25 05:26:40 51°19.231 2°38.675 316.5 11.4 311 -999
2008-09-25 05:26:50 51°19.252 2°38.637 316.5 11.4 311 -999
2008-09-25 05:27:00 51°19.271 2°38.601 317.5 11.69 309 -999
2008-09-25 05:27:10 51°19.293 2°38.558 317.5 11.69 309 -999
2008-09-25 05:27:20 51°19.312 2°38.523 317.5 11.69 309 -999
2008-09-25 05:27:30 51°19.335 2°38.479 317.5 11.69 309 -999
2008-09-25 05:27:40 51°19.355 2°38.44 317.5 11.69 309 -999
2008-09-25 05:27:50 51°19.375 2°38.4 317.5 11.69 309 -999
2008-09-25 05:28:00 51°19.394 2°38.365 317.3 11.59 310 -999
2008-09-25 05:28:10 51°19.415 2°38.326 317.3 11.59 310 -999
2008-09-25 05:28:20 51°19.437 2°38.283 317.3 11.59 310 -999
2008-09-25 05:28:30 51°19.458 2°38.243 317.3 11.59 310 -999
2008-09-25 05:28:40 51°19.479 2°38.205 317.3 11.59 310 -999
2008-09-25 05:28:50 51°19.498 2°38.169 317.3 11.59 310 -999
2008-09-25 05:29:00 51°19.518 2°38.13 316.6 11.5 309 -999
2008-09-25 05:29:10 51°19.541 2°38.087 316.6 11.5 309 -999
2008-09-25 05:29:20 51°19.561 2°38.049 316.6 11.5 309 -999
2008-09-25 05:29:30 51°19.581 2°38.01 316.6 11.5 309 -999
2008-09-25 05:29:40 51°19.602 2°37.97 316.6 11.5 309 -999
2008-09-25 05:29:50 51°19.623 2°37.931 316.6 11.5 309 -999
2008-09-25 05:30:00 51°19.643 2°37.893 317 11.59 311 -999
2008-09-25 05:30:10 51°19.664 2°37.854 317 11.59 311 -999
2008-09-25 05:30:20 51°19.685 2°37.815 317 11.59 311 -999
2008-09-25 05:30:30 51°19.706 2°37.775 317 11.59 311 -999
2008-09-25 05:30:40 51°19.726 2°37.736 317 11.59 311 -999
2008-09-25 05:30:50 51°19.747 2°37.696 317 11.59 311 -999
2008-09-25 05:31:00 51°19.767 2°37.657 316.6 11.69 309 -999
2008-09-25 05:31:10 51°19.788 2°37.617 316.6 11.69 309 -999
2008-09-25 05:31:20 51°19.81 2°37.578 316.6 11.69 309 -999
2008-09-25 05:31:30 51°19.828 2°37.542 316.6 11.69 309 -999
2008-09-25 05:31:40 51°19.851 2°37.498 316.6 11.69 309 -999
2008-09-25 05:31:50 51°19.87 2°37.462 316.6 11.69 309 -999
2008-09-25 05:32:00 51°19.893 2°37.419 317.1 11.59 311 -999
2008-09-25 05:32:10 51°19.914 2°37.379 317.1 11.59 311 -999
2008-09-25 05:32:20 51°19.935 2°37.34 317.1 11.59 311 -999
2008-09-25 05:32:30 51°19.954 2°37.305 317.1 11.59 311 -999
2008-09-25 05:32:40 51°19.973 2°37.268 317.1 11.59 311 -999
2008-09-25 05:32:50 51°19.986 2°37.242 317.1 11.59 311 -999
2008-09-25 05:33:00 51°20.001 2°37.214 319.5 7.09 309 -999
2008-09-25 05:33:10 51°20.012 2°37.191 319.5 7.09 309 -999
2008-09-25 05:33:20 51°20.021 2°37.172 319.5 7.09 309 -999
2008-09-25 05:33:30 51°20.029 2°37.155 319.5 7.09 309 -999
2008-09-25 05:33:40 51°20.034 2°37.142 319.5 7.09 309 -999
2008-09-25 05:33:50 51°20.039 2°37.128 319.5 7.09 309 -999
2008-09-25 05:34:00 51°20.044 2°37.114 322.8 3.39 296 -999
2008-09-25 05:34:10 51°20.048 2°37.101 322.8 3.39 296 -999
2008-09-25 05:34:20 51°20.052 2°37.089 322.8 3.39 296 -999
2008-09-25 05:34:30 51°20.055 2°37.077 322.8 3.39 296 -999
2008-09-25 05:34:40 51°20.058 2°37.067 322.8 3.39 296 -999
2008-09-25 05:34:50 51°20.06 2°37.056 322.8 3.39 296 -999
2008-09-25 05:35:00 51°20.062 2°37.046 330.3 2.29 286 -999
2008-09-25 05:35:10 51°20.063 2°37.036 330.3 2.29 286 -999
2008-09-25 05:35:20 51°20.065 2°37.027 330.3 2.29 286 -999
2008-09-25 05:35:30 51°20.067 2°37.017 330.3 2.29 286 -999
2008-09-25 05:35:40 51°20.07 2°37.009 330.3 2.29 286 -999
2008-09-25 05:35:50 51°20.073 2°36.999 330.3 2.29 286 -999
2008-09-25 05:36:00 51°20.077 2°36.99 344.3 2.1 299 -999
2008-09-25 05:36:10 51°20.079 2°36.982 344.3 2.1 299 -999
2008-09-25 05:36:20 51°20.081 2°36.975 344.3 2.1 299 -999
2008-09-25 05:36:30 51°20.082 2°36.966 344.3 2.1 299 -999
2008-09-25 05:36:40 51°20.082 2°36.959 344.3 2.1 299 -999
2008-09-25 05:36:50 51°20.083 2°36.952 344.3 2.1 299 -999
2008-09-25 05:37:00 51°20.083 2°36.945 351.3 1.6 276 -999
2008-09-25 05:37:10 51°20.084 2°36.938 351.3 1.6 276 -999
2008-09-25 05:37:20 51°20.084 2°36.932 351.3 1.6 276 -999
2008-09-25 05:37:30 51°20.084 2°36.924 351.3 1.6 276 -999
2008-09-25 05:37:40 51°20.084 2°36.918 351.3 1.6 276 -999
2008-09-25 05:37:50 51°20.085 2°36.911 351.3 1.6 276 -999
2008-09-25 05:38:00 51°20.085 2°36.903 353.1 1.6 278 -999
2008-09-25 05:38:10 51°20.085 2°36.896 353.1 1.6 278 -999
2008-09-25 05:38:20 51°20.087 2°36.889 353.1 1.6 278 -999
2008-09-25 05:38:30 51°20.088 2°36.883 353.1 1.6 278 -999
2008-09-25 05:38:40 51°20.088 2°36.876 353.1 1.6 278 -999
2008-09-25 05:38:50 51°20.089 2°36.869 353.1 1.6 278 -999
2008-09-25 05:39:00 51°20.089 2°36.862 353.3 1.5 278 -999
2008-09-25 05:39:10 51°20.09 2°36.855 353.3 1.5 278 -999
2008-09-25 05:39:20 51°20.09 2°36.849 353.3 1.5 278 -999
2008-09-25 05:39:30 51°20.09 2°36.842 353.3 1.5 278 -999
2008-09-25 05:39:40 51°20.089 2°36.836 353.3 1.5 278 -999
2008-09-25 05:39:50 51°20.089 2°36.829 353.3 1.5 278 -999
2008-09-25 05:40:00 51°20.089 2°36.822 355 1.39 261 -999
2008-09-25 05:40:10 51°20.088 2°36.816 355 1.39 261 -999
2008-09-25 05:40:20 51°20.087 2°36.809 355 1.39 261 -999
2008-09-25 05:40:30 51°20.086 2°36.802 355 1.39 261 -999
2008-09-25 05:40:40 51°20.085 2°36.795 355 1.39 261 -999
2008-09-25 05:40:50 51°20.084 2°36.789 355 1.39 261 -999
2008-09-25 05:41:00 51°20.083 2°36.782 353.3 1.6 269 -999
2008-09-25 05:41:10 51°20.085 2°36.775 353.3 1.6 269 -999
2008-09-25 05:41:20 51°20.087 2°36.77 353.3 1.6 269 -999
2008-09-25 05:41:30 51°20.091 2°36.765 353.3 1.6 269 -999
2008-09-25 05:41:40 51°20.095 2°36.763 353.3 1.6 269 -999
2008-09-25 05:41:50 51°20.099 2°36.763 353.3 1.6 269 -999
2008-09-25 05:42:00 51°20.103 2°36.766 37.8 1.5 31 -999
2008-09-25 05:42:10 51°20.106 2°36.771 37.8 1.5 31 -999
2008-09-25 05:42:20 51°20.107 2°36.778 37.8 1.5 31 -999
2008-09-25 05:42:30 51°20.107 2°36.786 37.8 1.5 31 -999
2008-09-25 05:42:40 51°20.106 2°36.796 37.8 1.5 31 -999
2008-09-25 05:42:50 51°20.103 2°36.806 37.8 1.5 31 -999
2008-09-25 05:43:00 51°20.101 2°36.817 93.7 2.5 105 -999
2008-09-25 05:43:10 51°20.1 2°36.828 93.7 2.5 105 -999
2008-09-25 05:43:20 51°20.1 2°36.84 93.7 2.5 105 -999
2008-09-25 05:43:30 51°20.1 2°36.852 93.7 2.5 105 -999
2008-09-25 05:43:40 51°20.103 2°36.862 93.7 2.5 105 -999
2008-09-25 05:43:50 51°20.107 2°36.871 93.7 2.5 105 -999
2008-09-25 05:44:00 51°20.113 2°36.878 46.3 2.6 41 -999
2008-09-25 05:44:10 51°20.118 2°36.887 46.3 2.6 41 -999
2008-09-25 05:44:20 51°20.122 2°36.897 46.3 2.6 41 -999
2008-09-25 05:44:30 51°20.124 2°36.908 46.3 2.6 41 -999
2008-09-25 05:44:40 51°20.123 2°36.919 46.3 2.6 41 -999
2008-09-25 05:44:50 51°20.12 2°36.93 46.3 2.6 41 -999
2008-09-25 05:45:00 51°20.116 2°36.937 102 2.2 134 -999
2008-09-25 05:45:10 51°20.111 2°36.942 102 2.2 134 -999
2008-09-25 05:45:20 51°20.107 2°36.946 102 2.2 134 -999
2008-09-25 05:45:30 51°20.102 2°36.947 102 2.2 134 -999
2008-09-25 05:45:40 51°20.097 2°36.946 102 2.2 134 -999
2008-09-25 05:45:50 51°20.093 2°36.944 102 2.2 134 -999
2008-09-25 05:46:00 51°20.089 2°36.941 143 1.6 212 -999
2008-09-25 05:46:10 51°20.085 2°36.936 143 1.6 212 -999
2008-09-25 05:46:20 51°20.083 2°36.931 143 1.6 212 -999
2008-09-25 05:46:30 51°20.081 2°36.925 143 1.6 212 -999
2008-09-25 05:46:40 51°20.08 2°36.919 143 1.6 212 -999
2008-09-25 05:46:50 51°20.08 2°36.912 143 1.6 212 -999
2008-09-25 05:47:00 51°20.08 2°36.906 176.3 1.3 264 -999
2008-09-25 05:47:10 51°20.079 2°36.9 176.3 1.3 264 -999
2008-09-25 05:47:20 51°20.078 2°36.895 176.3 1.3 264 -999
2008-09-25 05:47:30 51°20.077 2°36.889 176.3 1.3 264 -999
2008-09-25 05:47:40 51°20.076 2°36.883 176.3 1.3 264 -999
2008-09-25 05:47:50 51°20.075 2°36.877 176.3 1.3 264 -999
2008-09-25 05:48:00 51°20.074 2°36.871 190 1.39 250 -999
2008-09-25 05:48:10 51°20.072 2°36.865 190 1.39 250 -999
2008-09-25 05:48:20 51°20.071 2°36.859 190 1.39 250 -999
2008-09-25 05:48:30 51°20.069 2°36.853 190 1.39 250 -999
2008-09-25 05:48:40 51°20.067 2°36.847 190 1.39 250 -999
2008-09-25 05:48:50 51°20.066 2°36.841 190 1.39 250 -999
2008-09-25 05:49:00 51°20.064 2°36.836 193.6 1.5 242 -999
2008-09-25 05:49:10 51°20.061 2°36.829 193.6 1.5 242 -999
2008-09-25 05:49:20 51°20.06 2°36.823 193.6 1.5 242 -999
2008-09-25 05:49:30 51°20.057 2°36.817 193.6 1.5 242 -999
2008-09-25 05:49:40 51°20.055 2°36.811 193.6 1.5 242 -999
2008-09-25 05:49:50 51°20.053 2°36.805 193.6 1.5 242 -999
2008-09-25 05:50:00 51°20.05 2°36.799 195.9 1.6 240 -999
2008-09-25 05:50:10 51°20.048 2°36.792 195.9 1.6 240 -999
2008-09-25 05:50:20 51°20.045 2°36.786 195.9 1.6 240 -999
2008-09-25 05:50:30 51°20.043 2°36.78 195.9 1.6 240 -999
2008-09-25 05:50:40 51°20.04 2°36.774 195.9 1.6 240 -999
2008-09-25 05:50:50 51°20.037 2°36.767 195.9 1.6 240 -999
2008-09-25 05:51:00 51°20.034 2°36.761 190.5 1.8 236 -999
2008-09-25 05:51:10 51°20.031 2°36.755 190.5 1.8 236 -999
2008-09-25 05:51:20 51°20.028 2°36.749 190.5 1.8 236 -999
2008-09-25 05:51:30 51°20.024 2°36.743 190.5 1.8 236 -999
2008-09-25 05:51:40 51°20.02 2°36.738 190.5 1.8 236 -999
2008-09-25 05:51:50 51°20.014 2°36.733 190.5 1.8 236 -999
2008-09-25 05:52:00 51°20.008 2°36.729 165.4 2.39 200 -999
2008-09-25 05:52:10 51°20.002 2°36.726 165.4 2.39 200 -999
2008-09-25 05:52:20 51°19.995 2°36.725 165.4 2.39 200 -999
2008-09-25 05:52:30 51°19.989 2°36.726 165.4 2.39 200 -999
2008-09-25 05:52:40 51°19.983 2°36.728 165.4 2.39 200 -999
2008-09-25 05:52:50 51°19.977 2°36.732 165.4 2.39 200 -999
2008-09-25 05:53:00 51°19.973 2°36.737 112.4 2 139 -999
2008-09-25 05:53:10 51°19.969 2°36.744 112.4 2 139 -999
2008-09-25 05:53:20 51°19.967 2°36.751 112.4 2 139 -999
2008-09-25 05:53:30 51°19.966 2°36.76 112.4 2 139 -999
2008-09-25 05:53:40 51°19.966 2°36.768 112.4 2 139 -999
2008-09-25 05:53:50 51°19.968 2°36.777 112.4 2 139 -999
2008-09-25 05:54:00 51°19.971 2°36.787 61.2 2.5 67 -999
2008-09-25 05:54:10 51°19.974 2°36.798 61.2 2.5 67 -999
2008-09-25 05:54:20 51°19.977 2°36.809 61.2 2.5 67 -999
2008-09-25 05:54:30 51°19.981 2°36.821 61.2 2.5 67 -999
2008-09-25 05:54:40 51°19.986 2°36.834 61.2 2.5 67 -999
2008-09-25 05:54:50 51°19.989 2°36.847 61.2 2.5 67 -999
2008-09-25 05:55:00 51°19.994 2°36.861 60.7 3.39 64 -999
2008-09-25 05:55:10 51°19.998 2°36.874 60.7 3.39 64 -999
2008-09-25 05:55:20 51°20.002 2°36.888 60.7 3.39 64 -999
2008-09-25 05:55:30 51°20.006 2°36.903 60.7 3.39 64 -999
2008-09-25 05:55:40 51°20.01 2°36.918 60.7 3.39 64 -999
2008-09-25 05:55:50 51°20.014 2°36.932 60.7 3.39 64 -999
2008-09-25 05:56:00 51°20.019 2°36.947 61.7 3.7 65 -999
2008-09-25 05:56:10 51°20.023 2°36.962 61.7 3.7 65 -999
2008-09-25 05:56:20 51°20.027 2°36.977 61.7 3.7 65 -999
2008-09-25 05:56:30 51°20.031 2°36.991 61.7 3.7 65 -999
2008-09-25 05:56:40 51°20.036 2°37.007 61.7 3.7 65 -999
2008-09-25 05:56:50 51°20.04 2°37.022 61.7 3.7 65 -999
2008-09-25 05:57:00 51°20.045 2°37.037 60.6 3.7 63 -999
2008-09-25 05:57:10 51°20.049 2°37.051 60.6 3.7 63 -999
2008-09-25 05:57:20 51°20.053 2°37.065 60.6 3.7 63 -999
2008-09-25 05:57:30 51°20.057 2°37.076 60.6 3.7 63 -999
2008-09-25 05:57:40 51°20.061 2°37.085 60.6 3.7 63 -999
2008-09-25 05:57:50 51°20.066 2°37.091 60.6 3.7 63 -999
2008-09-25 05:58:00 51°20.071 2°37.094 37.2 1.69 19 -999
2008-09-25 05:58:10 51°20.075 2°37.095 37.2 1.69 19 -999
2008-09-25 05:58:20 51°20.079 2°37.096 37.2 1.69 19 -999
2008-09-25 05:58:30 51°20.082 2°37.095 37.2 1.69 19 -999
2008-09-25 05:58:40 51°20.085 2°37.093 37.2 1.69 19 -999
2008-09-25 05:58:50 51°20.087 2°37.091 37.2 1.69 19 -999
2008-09-25 05:59:00 51°20.09 2°37.089 19.6 1 327 -999
2008-09-25 05:59:10 51°20.092 2°37.086 19.6 1 327 -999
2008-09-25 05:59:20 51°20.094 2°37.083 19.6 1 327 -999
2008-09-25 05:59:30 51°20.096 2°37.079 19.6 1 327 -999
2008-09-25 05:59:40 51°20.097 2°37.075 19.6 1 327 -999
2008-09-25 05:59:50 51°20.099 2°37.07 19.6 1 327 -999
2008-09-25 06:00:00 51°20.1 2°37.066 2.7 1.19 289 -999
2008-09-25 06:00:10 51°20.101 2°37.06 2.7 1.19 289 -999
2008-09-25 06:00:20 51°20.101 2°37.055 2.7 1.19 289 -999
2008-09-25 06:00:30 51°20.101 2°37.049 2.7 1.19 289 -999
2008-09-25 06:00:40 51°20.1 2°37.044 2.7 1.19 289 -999
2008-09-25 06:00:50 51°20.099 2°37.038 2.7 1.19 289 -999
2008-09-25 06:01:00 51°20.098 2°37.032 358.5 1.5 256 -999
2008-09-25 06:01:10 51°20.097 2°37.026 358.5 1.5 256 -999
2008-09-25 06:01:20 51°20.097 2°37.02 358.5 1.5 256 -999
2008-09-25 06:01:30 51°20.096 2°37.014 358.5 1.5 256 -999
2008-09-25 06:01:40 51°20.095 2°37.008 358.5 1.5 256 -999
2008-09-25 06:01:50 51°20.095 2°37.003 358.5 1.5 256 -999
2008-09-25 06:02:00 51°20.095 2°36.997 355.8 1.3 268 -999
2008-09-25 06:02:10 51°20.095 2°36.991 355.8 1.3 268 -999
2008-09-25 06:02:20 51°20.094 2°36.985 355.8 1.3 268 -999
2008-09-25 06:02:30 51°20.094 2°36.98 355.8 1.3 268 -999
2008-09-25 06:02:40 51°20.093 2°36.974 355.8 1.3 268 -999
2008-09-25 06:02:50 51°20.092 2°36.969 355.8 1.3 268 -999
2008-09-25 06:03:00 51°20.092 2°36.963 356.3 1.3 264 -999
2008-09-25 06:03:10 51°20.092 2°36.957 356.3 1.3 264 -999
2008-09-25 06:03:20 51°20.092 2°36.951 356.3 1.3 264 -999
2008-09-25 06:03:30 51°20.092 2°36.946 356.3 1.3 264 -999
2008-09-25 06:03:40 51°20.092 2°36.94 356.3 1.3 264 -999
2008-09-25 06:03:50 51°20.092 2°36.934 356.3 1.3 264 -999
2008-09-25 06:04:00 51°20.091 2°36.929 353.8 1.3 262 -999
2008-09-25 06:04:10 51°20.091 2°36.923 353.8 1.3 262 -999
2008-09-25 06:04:20 51°20.091 2°36.917 353.8 1.3 262 -999
2008-09-25 06:04:30 51°20.091 2°36.912 353.8 1.3 262 -999
2008-09-25 06:04:40 51°20.091 2°36.906 353.8 1.3 262 -999
2008-09-25 06:04:50 51°20.091 2°36.9 353.8 1.3 262 -999
2008-09-25 06:05:00 51°20.09 2°36.895 353.3 1.3 267 -999
2008-09-25 06:05:10 51°20.09 2°36.889 353.3 1.3 267 -999
2008-09-25 06:05:20 51°20.09 2°36.884 353.3 1.3 267 -999
2008-09-25 06:05:30 51°20.089 2°36.878 353.3 1.3 267 -999
2008-09-25 06:05:40 51°20.088 2°36.872 353.3 1.3 267 -999
2008-09-25 06:05:50 51°20.087 2°36.866 353.3 1.3 267 -999
2008-09-25 06:06:00 51°20.086 2°36.861 352.6 1.39 256 -999
2008-09-25 06:06:10 51°20.085 2°36.855 352.6 1.39 256 -999
2008-09-25 06:06:20 51°20.084 2°36.849 352.6 1.39 256 -999
2008-09-25 06:06:30 51°20.082 2°36.844 352.6 1.39 256 -999
2008-09-25 06:06:40 51°20.081 2°36.838 352.6 1.39 256 -999
2008-09-25 06:06:50 51°20.08 2°36.833 352.6 1.39 256 -999
2008-09-25 06:07:00 51°20.078 2°36.827 351.1 1.3 242 -999
2008-09-25 06:07:10 51°20.077 2°36.822 351.1 1.3 242 -999
2008-09-25 06:07:20 51°20.075 2°36.816 351.1 1.3 242 -999
2008-09-25 06:07:30 51°20.074 2°36.811 351.1 1.3 242 -999
2008-09-25 06:07:40 51°20.073 2°36.805 351.1 1.3 242 -999
2008-09-25 06:07:50 51°20.074 2°36.8 351.1 1.3 242 -999
2008-09-25 06:08:00 51°20.079 2°36.796 358.1 2.1 344 -999
2008-09-25 06:08:10 51°20.085 2°36.797 358.1 2.1 344 -999
2008-09-25 06:08:20 51°20.093 2°36.804 358.1 2.1 344 -999
2008-09-25 06:08:30 51°20.101 2°36.814 358.1 2.1 344 -999
2008-09-25 06:08:40 51°20.11 2°36.828 358.1 2.1 344 -999
2008-09-25 06:08:50 51°20.121 2°36.841 358.1 2.1 344 -999
2008-09-25 06:09:00 51°20.133 2°36.857 39.8 5.59 40 -999
2008-09-25 06:09:10 51°20.144 2°36.875 39.8 5.59 40 -999
2008-09-25 06:09:20 51°20.151 2°36.893 39.8 5.59 40 -999
2008-09-25 06:09:30 51°20.156 2°36.909 39.8 5.59 40 -999
2008-09-25 06:09:40 51°20.157 2°36.923 39.8 5.59 40 -999
2008-09-25 06:09:50 51°20.157 2°36.933 39.8 5.59 40 -999
2008-09-25 06:10:00 51°20.156 2°36.941 83.4 1.6 109 -999
2008-09-25 06:10:10 51°20.154 2°36.946 83.4 1.6 109 -999
2008-09-25 06:10:20 51°20.151 2°36.95 83.4 1.6 109 -999
2008-09-25 06:10:30 51°20.148 2°36.954 83.4 1.6 109 -999
2008-09-25 06:10:40 51°20.143 2°36.956 83.4 1.6 109 -999
2008-09-25 06:10:50 51°20.139 2°36.957 83.4 1.6 109 -999
2008-09-25 06:11:00 51°20.136 2°36.958 122.5 1.39 179 -999
2008-09-25 06:11:10 51°20.132 2°36.957 122.5 1.39 179 -999
2008-09-25 06:11:20 51°20.129 2°36.955 122.5 1.39 179 -999
2008-09-25 06:11:30 51°20.127 2°36.951 122.5 1.39 179 -999
2008-09-25 06:11:40 51°20.124 2°36.947 122.5 1.39 179 -999
2008-09-25 06:11:50 51°20.121 2°36.943 122.5 1.39 179 -999
2008-09-25 06:12:00 51°20.119 2°36.939 148.8 1.39 223 -999
2008-09-25 06:12:10 51°20.116 2°36.936 148.8 1.39 223 -999
2008-09-25 06:12:20 51°20.113 2°36.932 148.8 1.39 223 -999
2008-09-25 06:12:30 51°20.111 2°36.928 148.8 1.39 223 -999
2008-09-25 06:12:40 51°20.108 2°36.924 148.8 1.39 223 -999
2008-09-25 06:12:50 51°20.106 2°36.92 148.8 1.39 223 -999
2008-09-25 06:13:00 51°20.103 2°36.915 162.3 1.5 230 -999
2008-09-25 06:13:10 51°20.1 2°36.911 162.3 1.5 230 -999
2008-09-25 06:13:20 51°20.097 2°36.906 162.3 1.5 230 -999
2008-09-25 06:13:30 51°20.095 2°36.902 162.3 1.5 230 -999
2008-09-25 06:13:40 51°20.092 2°36.897 162.3 1.5 230 -999
2008-09-25 06:13:50 51°20.089 2°36.893 162.3 1.5 230 -999
2008-09-25 06:14:00 51°20.086 2°36.888 168 1.5 227 -999
2008-09-25 06:14:10 51°20.083 2°36.884 168 1.5 227 -999
2008-09-25 06:14:20 51°20.08 2°36.879 168 1.5 227 -999
2008-09-25 06:14:30 51°20.077 2°36.875 168 1.5 227 -999
2008-09-25 06:14:40 51°20.074 2°36.871 168 1.5 227 -999
2008-09-25 06:14:50 51°20.07 2°36.866 168 1.5 227 -999
2008-09-25 06:15:00 51°20.067 2°36.862 161.6 1.39 217 -999
2008-09-25 06:15:10 51°20.064 2°36.858 161.6 1.39 217 -999
2008-09-25 06:15:20 51°20.061 2°36.855 161.6 1.39 217 -999
2008-09-25 06:15:30 51°20.058 2°36.851 161.6 1.39 217 -999
2008-09-25 06:15:40 51°20.055 2°36.847 161.6 1.39 217 -999
2008-09-25 06:15:50 51°20.052 2°36.843 161.6 1.39 217 -999
2008-09-25 06:16:00 51°20.048 2°36.84 150.1 1.5 217 -999
2008-09-25 06:16:10 51°20.045 2°36.836 150.1 1.5 217 -999
2008-09-25 06:16:20 51°20.042 2°36.832 150.1 1.5 217 -999
2008-09-25 06:16:30 51°20.039 2°36.829 150.1 1.5 217 -999
2008-09-25 06:16:40 51°20.036 2°36.826 150.1 1.5 217 -999
2008-09-25 06:16:50 51°20.033 2°36.823 150.1 1.5 217 -999
2008-09-25 06:17:00 51°20.03 2°36.819 142.4 1.3 217 -999
2008-09-25 06:17:10 51°20.027 2°36.816 142.4 1.3 217 -999
2008-09-25 06:17:20 51°20.024 2°36.812 142.4 1.3 217 -999
2008-09-25 06:17:30 51°20.021 2°36.809 142.4 1.3 217 -999
2008-09-25 06:17:40 51°20.018 2°36.806 142.4 1.3 217 -999
2008-09-25 06:17:50 51°20.015 2°36.802 142.4 1.3 217 -999
2008-09-25 06:18:00 51°20.012 2°36.799 140.6 1.39 214 -999
2008-09-25 06:18:10 51°20.009 2°36.795 140.6 1.39 214 -999
2008-09-25 06:18:20 51°20.006 2°36.792 140.6 1.39 214 -999
2008-09-25 06:18:30 51°20.004 2°36.788 140.6 1.39 214 -999
2008-09-25 06:18:40 51°20.001 2°36.785 140.6 1.39 214 -999
2008-09-25 06:18:50 51°19.998 2°36.781 140.6 1.39 214 -999
2008-09-25 06:19:00 51°19.995 2°36.778 137.8 1.3 219 -999
2008-09-25 06:19:10 51°19.992 2°36.775 137.8 1.3 219 -999
2008-09-25 06:19:20 51°19.99 2°36.771 137.8 1.3 219 -999
2008-09-25 06:19:30 51°19.987 2°36.768 137.8 1.3 219 -999
2008-09-25 06:19:40 51°19.984 2°36.764 137.8 1.3 219 -999
2008-09-25 06:19:50 51°19.982 2°36.761 137.8 1.3 219 -999
2008-09-25 06:20:00 51°19.979 2°36.757 135.1 1.19 219 -999
2008-09-25 06:20:10 51°19.976 2°36.753 135.1 1.19 219 -999
2008-09-25 06:20:20 51°19.973 2°36.75 135.1 1.19 219 -999
2008-09-25 06:20:30 51°19.971 2°36.746 135.1 1.19 219 -999
2008-09-25 06:20:40 51°19.968 2°36.743 135.1 1.19 219 -999
2008-09-25 06:20:50 51°19.966 2°36.739 135.1 1.19 219 -999
2008-09-25 06:21:00 51°19.963 2°36.736 132 1.3 220 -999
2008-09-25 06:21:10 51°19.96 2°36.732 132 1.3 220 -999
2008-09-25 06:21:20 51°19.958 2°36.729 132 1.3 220 -999
2008-09-25 06:21:30 51°19.955 2°36.725 132 1.3 220 -999
2008-09-25 06:21:40 51°19.953 2°36.721 132 1.3 220 -999
2008-09-25 06:21:50 51°19.95 2°36.718 132 1.3 220 -999
2008-09-25 06:22:00 51°19.947 2°36.714 131.1 1.19 220 -999
2008-09-25 06:22:10 51°19.945 2°36.711 131.1 1.19 220 -999
2008-09-25 06:22:20 51°19.942 2°36.708 131.1 1.19 220 -999
2008-09-25 06:22:30 51°19.94 2°36.705 131.1 1.19 220 -999
2008-09-25 06:22:40 51°19.937 2°36.701 131.1 1.19 220 -999
2008-09-25 06:22:50 51°19.935 2°36.698 131.1 1.19 220 -999
2008-09-25 06:23:00 51°19.932 2°36.695 129 1.1 218 -999
2008-09-25 06:23:10 51°19.93 2°36.691 129 1.1 218 -999
2008-09-25 06:23:20 51°19.927 2°36.688 129 1.1 218 -999
2008-09-25 06:23:30 51°19.925 2°36.684 129 1.1 218 -999
2008-09-25 06:23:40 51°19.922 2°36.681 129 1.1 218 -999
2008-09-25 06:23:50 51°19.92 2°36.678 129 1.1 218 -999
2008-09-25 06:24:00 51°19.917 2°36.674 127.7 1.19 222 -999
2008-09-25 06:24:10 51°19.914 2°36.671 127.7 1.19 222 -999
2008-09-25 06:24:20 51°19.912 2°36.668 127.7 1.19 222 -999
2008-09-25 06:24:30 51°19.909 2°36.665 127.7 1.19 222 -999
2008-09-25 06:24:40 51°19.906 2°36.662 127.7 1.19 222 -999
2008-09-25 06:24:50 51°19.904 2°36.659 127.7 1.19 222 -999
2008-09-25 06:25:00 51°19.901 2°36.655 125.2 1.3 217 -999
2008-09-25 06:25:10 51°19.898 2°36.652 125.2 1.3 217 -999
2008-09-25 06:25:20 51°19.896 2°36.649 125.2 1.3 217 -999
2008-09-25 06:25:30 51°19.893 2°36.646 125.2 1.3 217 -999
2008-09-25 06:25:40 51°19.89 2°36.643 125.2 1.3 217 -999
2008-09-25 06:25:50 51°19.887 2°36.639 125.2 1.3 217 -999
2008-09-25 06:26:00 51°19.885 2°36.636 126.2 1.19 212 -999
2008-09-25 06:26:10 51°19.882 2°36.633 126.2 1.19 212 -999
2008-09-25 06:26:20 51°19.879 2°36.63 126.2 1.19 212 -999
2008-09-25 06:26:30 51°19.877 2°36.627 126.2 1.19 212 -999
2008-09-25 06:26:40 51°19.874 2°36.624 126.2 1.19 212 -999
2008-09-25 06:26:50 51°19.871 2°36.62 126.2 1.19 212 -999
2008-09-25 06:27:00 51°19.868 2°36.617 128.4 1.19 215 -999
2008-09-25 06:27:10 51°19.866 2°36.613 128.4 1.19 215 -999
2008-09-25 06:27:20 51°19.863 2°36.611 128.4 1.19 215 -999
2008-09-25 06:27:30 51°19.86 2°36.607 128.4 1.19 215 -999
2008-09-25 06:27:40 51°19.858 2°36.604 128.4 1.19 215 -999
2008-09-25 06:27:50 51°19.855 2°36.601 128.4 1.19 215 -999
2008-09-25 06:28:00 51°19.853 2°36.598 131.6 1.19 217 -999
2008-09-25 06:28:10 51°19.85 2°36.595 131.6 1.19 217 -999
2008-09-25 06:28:20 51°19.847 2°36.592 131.6 1.19 217 -999
2008-09-25 06:28:30 51°19.845 2°36.589 131.6 1.19 217 -999
2008-09-25 06:28:40 51°19.842 2°36.586 131.6 1.19 217 -999
2008-09-25 06:28:50 51°19.839 2°36.583 131.6 1.19 217 -999
2008-09-25 06:29:00 51°19.836 2°36.581 133.9 1 213 -999
2008-09-25 06:29:10 51°19.833 2°36.577 133.9 1 213 -999
2008-09-25 06:29:20 51°19.831 2°36.574 133.9 1 213 -999
2008-09-25 06:29:30 51°19.828 2°36.571 133.9 1 213 -999
2008-09-25 06:29:40 51°19.825 2°36.568 133.9 1 213 -999
2008-09-25 06:29:50 51°19.823 2°36.566 133.9 1 213 -999
2008-09-25 06:30:00 51°19.82 2°36.563 134.5 1.19 212 -999
2008-09-25 06:30:10 51°19.817 2°36.56 134.5 1.19 212 -999
2008-09-25 06:30:20 51°19.815 2°36.557 134.5 1.19 212 -999
2008-09-25 06:30:30 51°19.812 2°36.555 134.5 1.19 212 -999
2008-09-25 06:30:40 51°19.809 2°36.552 134.5 1.19 212 -999
2008-09-25 06:30:50 51°19.807 2°36.549 134.5 1.19 212 -999
2008-09-25 06:31:00 51°19.804 2°36.546 132.8 1.1 213 -999
2008-09-25 06:31:10 51°19.801 2°36.543 132.8 1.1 213 -999
2008-09-25 06:31:20 51°19.799 2°36.54 132.8 1.1 213 -999
2008-09-25 06:31:30 51°19.796 2°36.537 132.8 1.1 213 -999
2008-09-25 06:31:40 51°19.793 2°36.534 132.8 1.1 213 -999
2008-09-25 06:31:50 51°19.791 2°36.531 132.8 1.1 213 -999
2008-09-25 06:32:00 51°19.788 2°36.528 132.3 1.1 213 -999
2008-09-25 06:32:10 51°19.785 2°36.525 132.3 1.1 213 -999
2008-09-25 06:32:20 51°19.783 2°36.523 132.3 1.1 213 -999
2008-09-25 06:32:30 51°19.78 2°36.519 132.3 1.1 213 -999
2008-09-25 06:32:40 51°19.778 2°36.517 132.3 1.1 213 -999
2008-09-25 06:32:50 51°19.776 2°36.514 132.3 1.1 213 -999
2008-09-25 06:33:00 51°19.773 2°36.512 127.9 1 212 -999
2008-09-25 06:33:10 51°19.77 2°36.509 127.9 1 212 -999
2008-09-25 06:33:20 51°19.768 2°36.507 127.9 1 212 -999
2008-09-25 06:33:30 51°19.765 2°36.504 127.9 1 212 -999
2008-09-25 06:33:40 51°19.763 2°36.501 127.9 1 212 -999
2008-09-25 06:33:50 51°19.76 2°36.498 127.9 1 212 -999
2008-09-25 06:34:00 51°19.757 2°36.495 127.5 1.19 213 -999
2008-09-25 06:34:10 51°19.755 2°36.493 127.5 1.19 213 -999
2008-09-25 06:34:20 51°19.752 2°36.49 127.5 1.19 213 -999
2008-09-25 06:34:30 51°19.75 2°36.487 127.5 1.19 213 -999
2008-09-25 06:34:40 51°19.747 2°36.485 127.5 1.19 213 -999
2008-09-25 06:34:50 51°19.745 2°36.482 127.5 1.19 213 -999
2008-09-25 06:35:00 51°19.742 2°36.48 127.5 1.1 213 -999
2008-09-25 06:35:10 51°19.74 2°36.477 127.5 1.1 213 -999
2008-09-25 06:35:20 51°19.737 2°36.475 127.5 1.1 213 -999
2008-09-25 06:35:30 51°19.735 2°36.471 127.5 1.1 213 -999
2008-09-25 06:35:40 51°19.732 2°36.469 127.5 1.1 213 -999
2008-09-25 06:35:50 51°19.73 2°36.467 127.5 1.1 213 -999
2008-09-25 06:36:00 51°19.728 2°36.464 124.7 1 216 -999
2008-09-25 06:36:10 51°19.725 2°36.462 124.7 1 216 -999
2008-09-25 06:36:20 51°19.723 2°36.459 124.7 1 216 -999
2008-09-25 06:36:30 51°19.72 2°36.457 124.7 1 216 -999
2008-09-25 06:36:40 51°19.718 2°36.454 124.7 1 216 -999
2008-09-25 06:36:50 51°19.716 2°36.452 124.7 1 216 -999
2008-09-25 06:37:00 51°19.713 2°36.45 120.7 0.9 214 -999
2008-09-25 06:37:10 51°19.711 2°36.447 120.7 0.9 214 -999
2008-09-25 06:37:20 51°19.709 2°36.445 120.7 0.9 214 -999
2008-09-25 06:37:30 51°19.706 2°36.442 120.7 0.9 214 -999
2008-09-25 06:37:40 51°19.704 2°36.439 120.7 0.9 214 -999
2008-09-25 06:37:50 51°19.701 2°36.437 120.7 0.9 214 -999
2008-09-25 06:38:00 51°19.7 2°36.434 118.7 0.9 217 -999
2008-09-25 06:38:10 51°19.697 2°36.431 118.7 0.9 217 -999
2008-09-25 06:38:20 51°19.695 2°36.429 118.7 0.9 217 -999
2008-09-25 06:38:30 51°19.692 2°36.426 118.7 0.9 217 -999
2008-09-25 06:38:40 51°19.69 2°36.423 118.7 0.9 217 -999
2008-09-25 06:38:50 51°19.688 2°36.421 118.7 0.9 217 -999
2008-09-25 06:39:00 51°19.686 2°36.419 118.9 1 215 -999
2008-09-25 06:39:10 51°19.683 2°36.416 118.9 1 215 -999
2008-09-25 06:39:20 51°19.681 2°36.413 118.9 1 215 -999
2008-09-25 06:39:30 51°19.679 2°36.411 118.9 1 215 -999
2008-09-25 06:39:40 51°19.677 2°36.408 118.9 1 215 -999
2008-09-25 06:39:50 51°19.674 2°36.405 118.9 1 215 -999
2008-09-25 06:40:00 51°19.672 2°36.403 120.7 0.9 216 -999
2008-09-25 06:40:10 51°19.67 2°36.4 120.7 0.9 216 -999
2008-09-25 06:40:20 51°19.667 2°36.397 120.7 0.9 216 -999
2008-09-25 06:40:30 51°19.665 2°36.394 120.7 0.9 216 -999
2008-09-25 06:40:40 51°19.663 2°36.392 120.7 0.9 216 -999
2008-09-25 06:40:50 51°19.661 2°36.389 120.7 0.9 216 -999
2008-09-25 06:41:00 51°19.658 2°36.386 123.9 1 218 -999
2008-09-25 06:41:10 51°19.656 2°36.384 123.9 1 218 -999
2008-09-25 06:41:20 51°19.654 2°36.381 123.9 1 218 -999
2008-09-25 06:41:30 51°19.651 2°36.378 123.9 1 218 -999
2008-09-25 06:41:40 51°19.649 2°36.375 123.9 1 218 -999
2008-09-25 06:41:50 51°19.647 2°36.373 123.9 1 218 -999
2008-09-25 06:42:00 51°19.645 2°36.37 129.5 1 213 -999
2008-09-25 06:42:10 51°19.642 2°36.367 129.5 1 213 -999
2008-09-25 06:42:20 51°19.64 2°36.365 129.5 1 213 -999
2008-09-25 06:42:30 51°19.638 2°36.362 129.5 1 213 -999
2008-09-25 06:42:40 51°19.635 2°36.359 129.5 1 213 -999
2008-09-25 06:42:50 51°19.633 2°36.357 129.5 1 213 -999
2008-09-25 06:43:00 51°19.631 2°36.354 132 1.1 219 -999
2008-09-25 06:43:10 51°19.629 2°36.352 132 1.1 219 -999
2008-09-25 06:43:20 51°19.627 2°36.349 132 1.1 219 -999
2008-09-25 06:43:30 51°19.624 2°36.346 132 1.1 219 -999
2008-09-25 06:43:40 51°19.622 2°36.344 132 1.1 219 -999
2008-09-25 06:43:50 51°19.619 2°36.341 132 1.1 219 -999
2008-09-25 06:44:00 51°19.617 2°36.338 134.9 1.1 214 -999
2008-09-25 06:44:10 51°19.615 2°36.336 134.9 1.1 214 -999
2008-09-25 06:44:20 51°19.612 2°36.333 134.9 1.1 214 -999
2008-09-25 06:44:30 51°19.61 2°36.331 134.9 1.1 214 -999
2008-09-25 06:44:40 51°19.608 2°36.328 134.9 1.1 214 -999
2008-09-25 06:44:50 51°19.605 2°36.325 134.9 1.1 214 -999
2008-09-25 06:45:00 51°19.603 2°36.323 135.5 1 212 -999
2008-09-25 06:45:10 51°19.601 2°36.321 135.5 1 212 -999
2008-09-25 06:45:20 51°19.598 2°36.318 135.5 1 212 -999
2008-09-25 06:45:30 51°19.596 2°36.316 135.5 1 212 -999
2008-09-25 06:45:40 51°19.594 2°36.314 135.5 1 212 -999
2008-09-25 06:45:50 51°19.591 2°36.311 135.5 1 212 -999
2008-09-25 06:46:00 51°19.589 2°36.309 135.5 1 213 -999
2008-09-25 06:46:10 51°19.587 2°36.307 135.5 1 213 -999
2008-09-25 06:46:20 51°19.584 2°36.305 135.5 1 213 -999
2008-09-25 06:46:30 51°19.582 2°36.303 135.5 1 213 -999
2008-09-25 06:46:40 51°19.58 2°36.301 135.5 1 213 -999
2008-09-25 06:46:50 51°19.578 2°36.299 135.5 1 213 -999
2008-09-25 06:47:00 51°19.575 2°36.297 133.8 0.9 209 -999
2008-09-25 06:47:10 51°19.573 2°36.295 133.8 0.9 209 -999
2008-09-25 06:47:20 51°19.571 2°36.293 133.8 0.9 209 -999
2008-09-25 06:47:30 51°19.569 2°36.291 133.8 0.9 209 -999
2008-09-25 06:47:40 51°19.567 2°36.289 133.8 0.9 209 -999
2008-09-25 06:47:50 51°19.565 2°36.288 133.8 0.9 209 -999
2008-09-25 06:48:00 51°19.562 2°36.286 132 0.9 210 -999
2008-09-25 06:48:10 51°19.561 2°36.284 132 0.9 210 -999
2008-09-25 06:48:20 51°19.558 2°36.282 132 0.9 210 -999
2008-09-25 06:48:30 51°19.556 2°36.281 132 0.9 210 -999
2008-09-25 06:48:40 51°19.553 2°36.281 132 0.9 210 -999
2008-09-25 06:48:50 51°19.55 2°36.284 132 0.9 210 -999
2008-09-25 06:49:00 51°19.547 2°36.288 114.4 1.5 132 -999
2008-09-25 06:49:10 51°19.545 2°36.295 114.4 1.5 132 -999
2008-09-25 06:49:20 51°19.544 2°36.303 114.4 1.5 132 -999
2008-09-25 06:49:30 51°19.544 2°36.311 114.4 1.5 132 -999
2008-09-25 06:49:40 51°19.546 2°36.319 114.4 1.5 132 -999
2008-09-25 06:49:50 51°19.548 2°36.327 114.4 1.5 132 -999
2008-09-25 06:50:00 51°19.553 2°36.334 50 2.39 42 -999
2008-09-25 06:50:10 51°19.559 2°36.341 50 2.39 42 -999
2008-09-25 06:50:20 51°19.566 2°36.348 50 2.39 42 -999
2008-09-25 06:50:30 51°19.574 2°36.355 50 2.39 42 -999
2008-09-25 06:50:40 51°19.582 2°36.362 50 2.39 42 -999
2008-09-25 06:50:50 51°19.591 2°36.37 50 2.39 42 -999
2008-09-25 06:51:00 51°19.6 2°36.378 33.3 3.7 32 -999
2008-09-25 06:51:10 51°19.609 2°36.388 33.3 3.7 32 -999
2008-09-25 06:51:20 51°19.617 2°36.397 33.3 3.7 32 -999
2008-09-25 06:51:30 51°19.625 2°36.407 33.3 3.7 32 -999
2008-09-25 06:51:40 51°19.632 2°36.417 33.3 3.7 32 -999
2008-09-25 06:51:50 51°19.64 2°36.428 33.3 3.7 32 -999
2008-09-25 06:52:00 51°19.647 2°36.438 41.3 3.5 40 -999
2008-09-25 06:52:10 51°19.655 2°36.448 41.3 3.5 40 -999
2008-09-25 06:52:20 51°19.662 2°36.456 41.3 3.5 40 -999
2008-09-25 06:52:30 51°19.67 2°36.466 41.3 3.5 40 -999
2008-09-25 06:52:40 51°19.679 2°36.474 41.3 3.5 40 -999
2008-09-25 06:52:50 51°19.687 2°36.483 41.3 3.5 40 -999
2008-09-25 06:53:00 51°19.694 2°36.491 34.7 3.6 34 -999
2008-09-25 06:53:10 51°19.703 2°36.501 34.7 3.6 34 -999
2008-09-25 06:53:20 51°19.711 2°36.51 34.7 3.6 34 -999
2008-09-25 06:53:30 51°19.719 2°36.519 34.7 3.6 34 -999
2008-09-25 06:53:40 51°19.727 2°36.528 34.7 3.6 34 -999
2008-09-25 06:53:50 51°19.734 2°36.536 34.7 3.6 34 -999
2008-09-25 06:54:00 51°19.742 2°36.545 35.3 3.39 32 -999
2008-09-25 06:54:10 51°19.751 2°36.553 35.3 3.39 32 -999
2008-09-25 06:54:20 51°19.758 2°36.562 35.3 3.39 32 -999
2008-09-25 06:54:30 51°19.765 2°36.57 35.3 3.39 32 -999
2008-09-25 06:54:40 51°19.774 2°36.579 35.3 3.39 32 -999
2008-09-25 06:54:50 51°19.781 2°36.588 35.3 3.39 32 -999
2008-09-25 06:55:00 51°19.789 2°36.597 35.3 3.5 33 -999
2008-09-25 06:55:10 51°19.797 2°36.605 35.3 3.5 33 -999
2008-09-25 06:55:20 51°19.806 2°36.613 35.3 3.5 33 -999
2008-09-25 06:55:30 51°19.814 2°36.622 35.3 3.5 33 -999
2008-09-25 06:55:40 51°19.823 2°36.63 35.3 3.5 33 -999
2008-09-25 06:55:50 51°19.831 2°36.639 35.3 3.5 33 -999
2008-09-25 06:56:00 51°19.839 2°36.648 34.8 3.5 33 -999
2008-09-25 06:56:10 51°19.847 2°36.656 34.8 3.5 33 -999
2008-09-25 06:56:20 51°19.856 2°36.664 34.8 3.5 33 -999
2008-09-25 06:56:30 51°19.863 2°36.672 34.8 3.5 33 -999
2008-09-25 06:56:40 51°19.87 2°36.679 34.8 3.5 33 -999
2008-09-25 06:56:50 51°19.877 2°36.685 34.8 3.5 33 -999
2008-09-25 06:57:00 51°19.882 2°36.691 32.2 2.39 31 -999
2008-09-25 06:57:10 51°19.888 2°36.696 32.2 2.39 31 -999
2008-09-25 06:57:20 51°19.893 2°36.702 32.2 2.39 31 -999
2008-09-25 06:57:30 51°19.898 2°36.706 32.2 2.39 31 -999
2008-09-25 06:57:40 51°19.902 2°36.71 32.2 2.39 31 -999
2008-09-25 06:57:50 51°19.906 2°36.714 32.2 2.39 31 -999
2008-09-25 06:58:00 51°19.91 2°36.718 37.5 1.6 35 -999
2008-09-25 06:58:10 51°19.913 2°36.722 37.5 1.6 35 -999
2008-09-25 06:58:20 51°19.915 2°36.726 37.5 1.6 35 -999
2008-09-25 06:58:30 51°19.917 2°36.731 37.5 1.6 35 -999
2008-09-25 06:58:40 51°19.919 2°36.735 37.5 1.6 35 -999
2008-09-25 06:58:50 51°19.92 2°36.739 37.5 1.6 35 -999
2008-09-25 06:59:00 51°19.921 2°36.743 62.7 0.9 81 -999
2008-09-25 06:59:10 51°19.921 2°36.746 62.7 0.9 81 -999
2008-09-25 06:59:20 51°19.921 2°36.751 62.7 0.9 81 -999
2008-09-25 06:59:30 51°19.92 2°36.755 62.7 0.9 81 -999
2008-09-25 06:59:40 51°19.92 2°36.759 62.7 0.9 81 -999
2008-09-25 06:59:50 51°19.918 2°36.764 62.7 0.9 81 -999
2008-09-25 07:00:00 51°19.917 2°36.769 95.5 1.3 113 -999
2008-09-25 07:00:10 51°19.915 2°36.774 95.5 1.3 113 -999
2008-09-25 07:00:20 51°19.913 2°36.779 95.5 1.3 113 -999
2008-09-25 07:00:30 51°19.911 2°36.785 95.5 1.3 113 -999
2008-09-25 07:00:40 51°19.908 2°36.792 95.5 1.3 113 -999
2008-09-25 07:00:50 51°19.905 2°36.799 95.5 1.3 113 -999
2008-09-25 07:01:00 51°19.902 2°36.806 107 2.1 125 -999
2008-09-25 07:01:10 51°19.899 2°36.814 107 2.1 125 -999
2008-09-25 07:01:20 51°19.896 2°36.823 107 2.1 125 -999
2008-09-25 07:01:30 51°19.892 2°36.832 107 2.1 125 -999
2008-09-25 07:01:40 51°19.889 2°36.84 107 2.1 125 -999
2008-09-25 07:01:50 51°19.885 2°36.851 107 2.1 125 -999
2008-09-25 07:02:00 51°19.882 2°36.861 105.7 2.6 116 -999
2008-09-25 07:02:10 51°19.879 2°36.871 105.7 2.6 116 -999
2008-09-25 07:02:20 51°19.876 2°36.881 105.7 2.6 116 -999
2008-09-25 07:02:30 51°19.872 2°36.892 105.7 2.6 116 -999
2008-09-25 07:02:40 51°19.87 2°36.901 105.7 2.6 116 -999
2008-09-25 07:02:50 51°19.867 2°36.91 105.7 2.6 116 -999
2008-09-25 07:03:00 51°19.864 2°36.917 102 2 119 -999
2008-09-25 07:03:10 51°19.862 2°36.925 102 2 119 -999
2008-09-25 07:03:20 51°19.86 2°36.932 102 2 119 -999
2008-09-25 07:03:30 51°19.857 2°36.938 102 2 119 -999
2008-09-25 07:03:40 51°19.856 2°36.944 102 2 119 -999
2008-09-25 07:03:50 51°19.853 2°36.95 102 2 119 -999
2008-09-25 07:04:00 51°19.851 2°36.954 101.7 1.3 126 -999
2008-09-25 07:04:10 51°19.849 2°36.959 101.7 1.3 126 -999
2008-09-25 07:04:20 51°19.847 2°36.963 101.7 1.3 126 -999
2008-09-25 07:04:30 51°19.845 2°36.967 101.7 1.3 126 -999
2008-09-25 07:04:40 51°19.843 2°36.97 101.7 1.3 126 -999
2008-09-25 07:04:50 51°19.841 2°36.974 101.7 1.3 126 -999
2008-09-25 07:05:00 51°19.839 2°36.977 100.5 1 136 -999
2008-09-25 07:05:10 51°19.837 2°36.979 100.5 1 136 -999
2008-09-25 07:05:20 51°19.836 2°36.981 100.5 1 136 -999
2008-09-25 07:05:30 51°19.834 2°36.983 100.5 1 136 -999
2008-09-25 07:05:40 51°19.832 2°36.985 100.5 1 136 -999
2008-09-25 07:05:50 51°19.83 2°36.987 100.5 1 136 -999
2008-09-25 07:06:00 51°19.829 2°36.988 99.7 0.69 156 -999
2008-09-25 07:06:10 51°19.827 2°36.99 99.7 0.69 156 -999
2008-09-25 07:06:20 51°19.825 2°36.991 99.7 0.69 156 -999
2008-09-25 07:06:30 51°19.823 2°36.992 99.7 0.69 156 -999
2008-09-25 07:06:40 51°19.821 2°36.993 99.7 0.69 156 -999
2008-09-25 07:06:50 51°19.82 2°36.993 99.7 0.69 156 -999
2008-09-25 07:07:00 51°19.818 2°36.994 102.2 0.59 166 -999
2008-09-25 07:07:10 51°19.817 2°36.995 102.2 0.59 166 -999
2008-09-25 07:07:20 51°19.815 2°36.995 102.2 0.59 166 -999
2008-09-25 07:07:30 51°19.813 2°36.996 102.2 0.59 166 -999
2008-09-25 07:07:40 51°19.812 2°36.996 102.2 0.59 166 -999
2008-09-25 07:07:50 51°19.81 2°36.996 102.2 0.59 166 -999
2008-09-25 07:08:00 51°19.808 2°36.995 104.2 0.5 174 -999
2008-09-25 07:08:10 51°19.807 2°36.996 104.2 0.5 174 -999
2008-09-25 07:08:20 51°19.805 2°36.996 104.2 0.5 174 -999
2008-09-25 07:08:30 51°19.804 2°36.996 104.2 0.5 174 -999
2008-09-25 07:08:40 51°19.802 2°36.995 104.2 0.5 174 -999
2008-09-25 07:08:50 51°19.8 2°36.995 104.2 0.5 174 -999
2008-09-25 07:09:00 51°19.799 2°36.995 107.2 0.59 185 -999
2008-09-25 07:09:10 51°19.797 2°36.995 107.2 0.59 185 -999
2008-09-25 07:09:20 51°19.795 2°36.994 107.2 0.59 185 -999
2008-09-25 07:09:30 51°19.794 2°36.994 107.2 0.59 185 -999
2008-09-25 07:09:40 51°19.792 2°36.994 107.2 0.59 185 -999
2008-09-25 07:09:50 51°19.79 2°36.995 107.2 0.59 185 -999
2008-09-25 07:10:00 51°19.787 2°37 112.4 1.6 121 -999
2008-09-25 07:10:10 51°19.785 2°37.009 112.4 1.6 121 -999
2008-09-25 07:10:20 51°19.784 2°37.021 112.4 1.6 121 -999
2008-09-25 07:10:30 51°19.785 2°37.039 112.4 1.6 121 -999
2008-09-25 07:10:40 51°19.79 2°37.057 112.4 1.6 121 -999
2008-09-25 07:10:50 51°19.798 2°37.073 112.4 1.6 121 -999
2008-09-25 07:11:00 51°19.81 2°37.085 38.6 5.2 28 -999
2008-09-25 07:11:10 51°19.825 2°37.094 38.6 5.2 28 -999
2008-09-25 07:11:20 51°19.841 2°37.101 38.6 5.2 28 -999
2008-09-25 07:11:30 51°19.863 2°37.11 38.6 5.2 28 -999
2008-09-25 07:11:40 51°19.886 2°37.119 38.6 5.2 28 -999
2008-09-25 07:11:50 51°19.907 2°37.128 38.6 5.2 28 -999
2008-09-25 07:12:00 51°19.934 2°37.139 15.5 9.09 14 -999
2008-09-25 07:12:10 51°19.959 2°37.15 15.5 9.09 14 -999
2008-09-25 07:12:20 51°19.981 2°37.159 15.5 9.09 14 -999
2008-09-25 07:12:30 51°20.013 2°37.172 15.5 9.09 14 -999
2008-09-25 07:12:40 51°20.036 2°37.182 15.5 9.09 14 -999
2008-09-25 07:12:50 51°20.063 2°37.195 15.5 9.09 14 -999
2008-09-25 07:13:00 51°20.088 2°37.211 20.8 10 23 -999
2008-09-25 07:13:10 51°20.114 2°37.231 20.8 10 23 -999
2008-09-25 07:13:20 51°20.14 2°37.251 20.8 10 23 -999
2008-09-25 07:13:30 51°20.164 2°37.269 20.8 10 23 -999
2008-09-25 07:13:40 51°20.193 2°37.292 20.8 10 23 -999
2008-09-25 07:13:50 51°20.22 2°37.313 20.8 10 23 -999
2008-09-25 07:14:00 51°20.244 2°37.333 26.8 10.9 26 -999
2008-09-25 07:14:10 51°20.271 2°37.355 26.8 10.9 26 -999
2008-09-25 07:14:20 51°20.298 2°37.376 26.8 10.9 26 -999
2008-09-25 07:14:30 51°20.328 2°37.4 26.8 10.9 26 -999
2008-09-25 07:14:40 51°20.355 2°37.421 26.8 10.9 26 -999
2008-09-25 07:14:50 51°20.383 2°37.442 26.8 10.9 26 -999
2008-09-25 07:15:00 51°20.41 2°37.464 27 10.9 27 -999
2008-09-25 07:15:10 51°20.437 2°37.485 27 10.9 27 -999
2008-09-25 07:15:20 51°20.463 2°37.509 27 10.9 27 -999
2008-09-25 07:15:30 51°20.487 2°37.53 27 10.9 27 -999